D/T METAR WX W/DIR W/SPE G/SPE TEMP DEWP
5/06/20 07:50 EGAA 050650Z 30011KT 9999 BKN013 SCT019 09/06 Q1000 WNW (300°) 12.7mph 9°C 6°C
5/06/20 07:20 EGAA 050620Z 31010KT 9999 FEW015 09/06 Q1000 NW (310°) 11.5mph 9°C 6°C
5/06/20 06:50 EGAA 050550Z 32008KT 9999 SCT019 SCT042 08/06 Q1000 NW (320°) 9.2mph 8°C 6°C
5/06/20 05:50 EGAA 050450Z 34005KT 9999 SCT027 SCT046 07/05 Q1000 NNW (340°) 5.8mph 7°C 5°C
5/06/20 05:20 EGAA 050420Z 34006KT 9999 FEW023 SCT029 07/05 Q1000 NNW (340°) 6.9mph 7°C 5°C
5/06/20 04:50 EGAA 050350Z 32008KT 9999 -RA FEW018 SCT035 07/06 Q1000 -RA NW (320°) 9.2mph 7°C 6°C
5/06/20 03:50 EGAA 050250Z AUTO 32009KT 9999 -RA FEW020/// SCT026/// BKN032/// 08/07 Q1000 RERA -RA NW (320°) 10.4mph 8°C 7°C
5/06/20 03:20 EGAA 050220Z AUTO 31009KT 9999 -RA SCT019/// SCT031/// BKN037/// 08/07 Q1000 RERA -RA NW (310°) 10.4mph 8°C 7°C
5/06/20 02:50 EGAA 050150Z 31006KT 9999 -RA FEW014 SCT042 08/06 Q1000 -RA NW (310°) 6.9mph 8°C 6°C
5/06/20 02:20 EGAA 050120Z 31006KT 9999 FEW016 SCT023 09/07 Q1001 NW (310°) 6.9mph 9°C 7°C
5/06/20 01:20 EGAA 050020Z 32006KT 9999 FEW020 09/06 Q1001 NW (320°) 6.9mph 9°C 6°C
5/06/20 00:50 EGAA 042350Z 32008KT CAVOK 09/06 Q1001 NW (320°) 9.2mph 9°C 6°C
5/06/20 00:20 EGAA 042320Z 32010KT CAVOK 09/06 Q1001 NW (320°) 11.5mph 9°C 6°C
4/06/20 23:50 EGAA 042250Z 32011KT 9999 FEW017 SCT048 09/06 Q1001 NW (320°) 12.7mph 9°C 6°C
4/06/20 23:20 EGAA 042220Z 32009KT 9999 FEW017 BKN045 09/07 Q1002 NW (320°) 10.4mph 9°C 7°C
4/06/20 22:50 EGAA 042150Z 31012KT 9999 BKN045 10/07 Q1002 NW (310°) 13.8mph 10°C 7°C
4/06/20 22:20 EGAA 042120Z 31010KT 9999 FEW019 SCT031 BKN038 10/07 Q1002 NW (310°) 11.5mph 10°C 7°C
4/06/20 21:50 EGAA 042050Z 31010KT 9999 FEW025 SCT040 10/07 Q1002 NW (310°) 11.5mph 10°C 7°C
4/06/20 21:20 EGAA 042020Z 32010KT 9999 FEW021 SCT027 BKN041 10/06 Q1002 NW (320°) 11.5mph 10°C 6°C
4/06/20 20:50 EGAA 041950Z 32010KT 9999 SCT024 BKN040 11/06 Q1002 NW (320°) 11.5mph 11°C 6°C
4/06/20 20:20 EGAA 041920Z 32013KT 9999 FEW021 BKN038 11/06 Q1002 NW (320°) 15.0mph 11°C 6°C
4/06/20 19:50 EGAA 041850Z 32013KT 9999 FEW028 SCT037 11/06 Q1002 NW (320°) 15.0mph 11°C 6°C
4/06/20 19:20 EGAA 041820Z 32014KT 9999 FEW027 SCT033 11/07 Q1002 NW (320°) 16.1mph 11°C 7°C
4/06/20 18:50 EGAA 041750Z 31012KT 9999 FEW031 SCT036 12/07 Q1002 NW (310°) 13.8mph 12°C 7°C
4/06/20 18:20 EGAA 041720Z 32010KT 9999 FEW012 SCT025 BKN030 11/08 Q1002 NW (320°) 11.5mph 11°C 8°C
4/06/20 17:50 EGAA 041650Z 31014KT 9999 SCT018 SCT034 BKN040 12/08 Q1002 NW (310°) 16.1mph 12°C 8°C
4/06/20 17:20 EGAA 041620Z 32011G21KT 9999 FEW023 SCT036 12/08 Q1002 NW (320°) 12.7mph 24.2mph 12°C 8°C
4/06/20 16:50 EGAA 041550Z 32012KT 9999 BKN039 13/08 Q1002 NW (320°) 13.8mph 13°C 8°C
4/06/20 16:20 EGAA 041520Z 33011KT 9999 FEW020 BKN038 13/08 Q1002 NNW (330°) 12.7mph 13°C 8°C
4/06/20 15:50 EGAA 041450Z 31013KT 9999 FEW028 SCT038 BKN046 13/08 Q1003 NW (310°) 15.0mph 13°C 8°C
4/06/20 15:20 EGAA 041420Z 31012KT 9999 SCT022 BKN027 14/09 Q1003 NW (310°) 13.8mph 14°C 9°C
4/06/20 14:50 EGAA 041350Z 32011KT 9999 SCT020 BKN026 13/09 Q1003 NW (320°) 12.7mph 13°C 9°C
4/06/20 14:20 EGAA 041320Z 32011KT 9999 FEW020 BKN032 14/10 Q1003 NW (320°) 12.7mph 14°C 10°C
4/06/20 13:50 EGAA 041250Z 33009KT 290V360 9999 SCT018 BKN023 14/10 Q1003 NNW (330°) 10.4mph 14°C 10°C
4/06/20 13:20 EGAA 041220Z 33009KT 9999 FEW017 SCT024 14/11 Q1004 NNW (330°) 10.4mph 14°C 11°C
4/06/20 12:20 EGAA 041120Z 32006KT 280V010 9999 FEW008 SCT013 BKN018 12/10 Q1004 RERA NW (320°) 6.9mph 12°C 10°C
4/06/20 11:50 EGAA 041050Z 30010KT 9999 SCT014 BKN019 BKN024 12/11 Q1005 WNW (300°) 11.5mph 12°C 11°C
4/06/20 11:20 EGAA 041020Z 28012KT 9999 FEW016 SCT023 BKN028 13/10 Q1005 W (280°) 13.8mph 13°C 10°C
4/06/20 10:50 EGAA 040950Z 29009KT 9999 SCT010 BKN015 12/10 Q1005 WNW (290°) 10.4mph 12°C 10°C
4/06/20 10:20 EGAA 040920Z 27009KT 9999 FEW006 SCT010 BKN015 12/10 Q1005 W (270°) 10.4mph 12°C 10°C
4/06/20 09:50 EGAA 040850Z 29009KT 260V320 9999 SCT008 SCT013 BKN018 12/10 Q1006 WNW (290°) 10.4mph 12°C 10°C
4/06/20 09:20 EGAA 040820Z 29008KT 9999 BKN006 BKN010 OVC014 11/10 Q1006 WNW (290°) 9.2mph 11°C 10°C
4/06/20 08:20 EGAA 040720Z 28008KT 4000 -RADZ SCT005 BKN008 BKN017 10/09 Q1007 -RA -DZ W (280°) 9.2mph 10°C 9°C
4/06/20 07:50 EGAA 040650Z 28009KT 6000 SCT006 BKN009 OVC014 10/09 Q1007 W (280°) 10.4mph 10°C 9°C
4/06/20 06:50 EGAA 040550Z 29007KT 9999 SCT004 BKN007 OVC012 09/09 Q1008 WNW (290°) 8.1mph 9°C 9°C
4/06/20 06:20 EGAA 040520Z 29010KT 9999 SCT004 BKN009 10/08 Q1008 WNW (290°) 11.5mph 10°C 8°C
4/06/20 05:50 EGAA 040450Z 28009KT 9999 BKN010 BKN014 10/08 Q1009 W (280°) 10.4mph 10°C 8°C
4/06/20 04:50 EGAA 040350Z 29007KT 9999 SCT012 BKN016 10/08 Q1009 WNW (290°) 8.1mph 10°C 8°C
4/06/20 04:20 EGAA 040320Z 30009KT 9999 SCT013 BKN018 10/07 Q1010 WNW (300°) 10.4mph 10°C 7°C
4/06/20 03:50 EGAA 040250Z 31008KT 9999 SCT013 BKN026 09/07 Q1010 NW (310°) 9.2mph 9°C 7°C
4/06/20 03:20 EGAA 040220Z 31005KT 9999 BKN013 09/06 Q1011 NW (310°) 5.8mph 9°C 6°C
4/06/20 02:50 EGAA 040150Z 31005KT 9999 SCT015 BKN020 09/06 Q1011 NW (310°) 5.8mph 9°C 6°C
4/06/20 02:20 EGAA 040120Z 32007KT 300V360 CAVOK 09/06 Q1012 NW (320°) 8.1mph 9°C 6°C
4/06/20 01:50 EGAA 040050Z VRB03KT 9999 FEW017 09/06 Q1012 N (0°) 3.5mph 9°C 6°C
4/06/20 01:20 EGAA 040020Z 31007KT 9999 SCT016 SCT021 09/06 Q1013 NW (310°) 8.1mph 9°C 6°C
4/06/20 00:50 EGAA 032350Z 31007KT 280V340 9999 SCT014 09/06 Q1013 NW (310°) 8.1mph 9°C 6°C
4/06/20 00:20 EGAA 032320Z 31007KT 9999 FEW017 09/07 Q1014 NW (310°) 8.1mph 9°C 7°C
3/06/20 23:20 EGAA 032220Z 33007KT CAVOK 09/06 Q1014 NNW (330°) 8.1mph 9°C 6°C
3/06/20 22:50 EGAA 032150Z 35011KT CAVOK 10/06 Q1014 N (350°) 12.7mph 10°C 6°C
3/06/20 22:20 EGAA 032120Z 35012KT CAVOK 10/06 Q1015 N (350°) 13.8mph 10°C 6°C
3/06/20 21:50 EGAA 032050Z 35011KT CAVOK 10/06 Q1015 N (350°) 12.7mph 10°C 6°C
3/06/20 20:50 EGAA 031950Z 35014KT 9999 FEW023 11/06 Q1015 N (350°) 16.1mph 11°C 6°C
3/06/20 20:20 EGAA 031920Z 35013KT CAVOK 11/05 Q1015 N (350°) 15.0mph 11°C 5°C
3/06/20 19:50 EGAA 031850Z 36015KT CAVOK 12/05 Q1015 N (360°) 17.3mph 12°C 5°C
3/06/20 19:20 EGAA 031820Z 35015KT 9999 FEW033 12/05 Q1015 N (350°) 17.3mph 12°C 5°C
3/06/20 18:50 EGAA 031750Z 36015KT 9999 BKN034 13/05 Q1015 N (360°) 17.3mph 13°C 5°C
3/06/20 18:20 EGAA 031720Z 36013KT 9999 FEW033 13/05 Q1015 N (360°) 15.0mph 13°C 5°C
3/06/20 17:50 EGAA 031650Z 35014KT 9999 FEW038 14/06 Q1016 N (350°) 16.1mph 14°C 6°C
3/06/20 17:20 EGAA 031620Z 36015KT 9999 BKN034 13/05 Q1016 N (360°) 17.3mph 13°C 5°C
3/06/20 16:50 EGAA 031550Z 36013KT 9999 FEW034 BKN040 14/06 Q1016 N (360°) 15.0mph 14°C 6°C
3/06/20 15:50 EGAA 031450Z 36014KT 9999 SCT033 13/06 Q1016 N (360°) 16.1mph 13°C 6°C
3/06/20 15:20 EGAA 031420Z 35014KT 9999 FEW033 BKN042 14/06 Q1016 N (350°) 16.1mph 14°C 6°C
3/06/20 14:50 EGAA 031350Z 36015KT 9999 BKN037 14/05 Q1016 N (360°) 17.3mph 14°C 5°C
3/06/20 13:50 EGAA 031250Z 36015KT 9999 BKN037 15/05 Q1017 N (360°) 17.3mph 15°C 5°C
3/06/20 13:20 EGAA 031220Z 02012KT 9999 BKN037 BKN044 13/05 Q1017 NNE (20°) 13.8mph 13°C 5°C
3/06/20 12:50 EGAA 031150Z 03012KT 350V060 9999 SCT034 BKN040 13/06 Q1017 NNE (30°) 13.8mph 13°C 6°C
3/06/20 12:20 EGAA 031120Z 02011KT 9999 SCT029 BKN035 OVC040 13/06 Q1017 NNE (20°) 12.7mph 13°C 6°C
3/06/20 11:20 EGAA 031020Z 03011KT 9999 BKN023 12/07 Q1017 NNE (30°) 12.7mph 12°C 7°C
3/06/20 10:50 EGAA 030950Z 03012KT 9999 FEW022 SCT028 BKN034 12/07 Q1017 NNE (30°) 13.8mph 12°C 7°C
3/06/20 10:20 EGAA 030920Z 03011KT 9999 FEW022 SCT031 BKN038 12/07 Q1017 NNE (30°) 12.7mph 12°C 7°C
3/06/20 09:50 EGAA 030850Z 04013KT 9999 FEW017 BKN034 12/07 Q1017 NE (40°) 15.0mph 12°C 7°C
3/06/20 09:20 EGAA 030820Z 04013KT 010V080 9999 SCT017 BKN034 BKN040 12/08 Q1017 NE (40°) 15.0mph 12°C 8°C
3/06/20 08:50 EGAA 030750Z 05011KT 9999 SCT015 OVC039 11/08 Q1017 NE (50°) 12.7mph 11°C 8°C
3/06/20 08:20 EGAA 030720Z 06012KT 9999 SCT015 SCT020 BKN028 11/08 Q1017 ENE (60°) 13.8mph 11°C 8°C
3/06/20 07:50 EGAA 030650Z 06011KT 9999 SCT013 BKN017 BKN025 11/08 Q1016 ENE (60°) 12.7mph 11°C 8°C
3/06/20 07:20 EGAA 030620Z 05011KT 9999 SCT010 BKN015 11/08 Q1016 NE (50°) 12.7mph 11°C 8°C
3/06/20 06:50 EGAA 030550Z 04013KT 9999 BKN012 11/09 Q1016 NE (40°) 15.0mph 11°C 9°C
3/06/20 06:20 EGAA 030520Z 04011KT 9999 FEW008 SCT013 11/09 Q1015 NE (40°) 12.7mph 11°C 9°C
3/06/20 05:50 EGAA 030450Z 05011KT 9999 FEW008 SCT012 11/09 Q1015 NE (50°) 12.7mph 11°C 9°C
3/06/20 05:20 EGAA 030420Z 01011KT 9999 BKN008 BKN013 11/10 Q1015 N (10°) 12.7mph 11°C 10°C
3/06/20 04:50 EGAA 030350Z 35008KT 9999 SCT006 BKN009 11/10 Q1015 N (350°) 9.2mph 11°C 10°C
3/06/20 04:20 EGAA 030320Z AUTO 35006KT 300V060 9999 OVC005/// 11/10 Q1015 N (350°) 6.9mph 11°C 10°C
3/06/20 03:50 EGAA 030250Z 34007KT 300V010 9999 BKN006 11/10 Q1015 NNW (340°) 8.1mph 11°C 10°C
3/06/20 03:20 EGAA 030220Z 33010KT 9999 BKN008 11/10 Q1015 NNW (330°) 11.5mph 11°C 10°C
3/06/20 02:50 EGAA 030150Z 33012KT 9999 BKN009 11/10 Q1015 NNW (330°) 13.8mph 11°C 10°C
3/06/20 02:20 EGAA 030120Z 33012KT 9999 BKN006 BKN009 BKN023 11/10 Q1016 NNW (330°) 13.8mph 11°C 10°C